sensor_id;sensor_type;location;lat;lon;timestamp;pressure;altitude;pressure_sealevel;temperature;humidity
77706;BME280;66874;45.274;5.880;2023-06-22T00:00:51;98730.84;;;21.93;64.19
77706;BME280;66874;45.274;5.880;2023-06-22T00:03:22;98737.13;;;21.92;64.30
77706;BME280;66874;45.274;5.880;2023-06-22T00:05:48;98730.97;;;21.92;64.42
77706;BME280;66874;45.274;5.880;2023-06-22T00:08:14;98728.63;;;21.87;64.43
77706;BME280;66874;45.274;5.880;2023-06-22T00:10:40;98724.34;;;21.85;64.53
77706;BME280;66874;45.274;5.880;2023-06-22T00:13:07;98720.31;;;21.79;64.63
77706;BME280;66874;45.274;5.880;2023-06-22T00:15:33;98710.19;;;21.72;64.69
77706;BME280;66874;45.274;5.880;2023-06-22T00:17:58;98710.31;;;21.70;64.75
77706;BME280;66874;45.274;5.880;2023-06-22T00:20:25;98707.00;;;21.66;64.83
77706;BME280;66874;45.274;5.880;2023-06-22T00:22:57;98716.06;;;21.64;65.23
77706;BME280;66874;45.274;5.880;2023-06-22T00:25:23;98718.19;;;21.59;65.01
77706;BME280;66874;45.274;5.880;2023-06-22T00:27:49;98703.59;;;21.52;65.27
77706;BME280;66874;45.274;5.880;2023-06-22T00:30:18;98704.16;;;21.44;65.58
77706;BME280;66874;45.274;5.880;2023-06-22T00:32:44;98708.75;;;21.42;65.73
77706;BME280;66874;45.274;5.880;2023-06-22T00:35:11;98705.22;;;21.41;65.55
77706;BME280;66874;45.274;5.880;2023-06-22T00:37:37;98706.28;;;21.39;65.19
77706;BME280;66874;45.274;5.880;2023-06-22T00:40:04;98709.16;;;21.36;65.50
77706;BME280;66874;45.274;5.880;2023-06-22T00:42:30;98707.63;;;21.32;65.82
77706;BME280;66874;45.274;5.880;2023-06-22T00:44:56;98704.25;;;21.30;65.91
77706;BME280;66874;45.274;5.880;2023-06-22T00:47:21;98700.69;;;21.29;65.97
77706;BME280;66874;45.274;5.880;2023-06-22T00:49:48;98705.41;;;21.26;66.40
77706;BME280;66874;45.274;5.880;2023-06-22T00:52:16;98708.06;;;21.26;66.41
77706;BME280;66874;45.274;5.880;2023-06-22T00:54:51;98695.38;;;21.29;66.24
77706;BME280;66874;45.274;5.880;2023-06-22T00:57:17;98692.94;;;21.26;66.38
77706;BME280;66874;45.274;5.880;2023-06-22T00:59:44;98698.56;;;21.21;66.59
77706;BME280;66874;45.274;5.880;2023-06-22T01:02:10;98688.03;;;21.20;66.67
77706;BME280;66874;45.274;5.880;2023-06-22T01:04:37;98682.06;;;21.16;67.04
77706;BME280;66874;45.274;5.880;2023-06-22T01:10:08;98686.44;;;21.05;67.10
77706;BME280;66874;45.274;5.880;2023-06-22T01:12:45;98678.97;;;20.97;67.39
77706;BME280;66874;45.274;5.880;2023-06-22T01:18:09;98671.44;;;20.91;67.54
77706;BME280;66874;45.274;5.880;2023-06-22T01:20:35;98670.56;;;20.90;67.85
77706;BME280;66874;45.274;5.880;2023-06-22T01:23:11;98652.47;;;20.83;67.80
77706;BME280;66874;45.274;5.880;2023-06-22T01:30:57;98639.91;;;20.72;68.24
77706;BME280;66874;45.274;5.880;2023-06-22T01:33:35;98637.66;;;20.66;68.27
77706;BME280;66874;45.274;5.880;2023-06-22T01:36:02;98628.38;;;20.59;68.29
77706;BME280;66874;45.274;5.880;2023-06-22T01:38:29;98618.91;;;20.55;68.64
77706;BME280;66874;45.274;5.880;2023-06-22T01:40:57;98622.84;;;20.49;68.67
77706;BME280;66874;45.274;5.880;2023-06-22T01:43:24;98616.09;;;20.43;68.62
77706;BME280;66874;45.274;5.880;2023-06-22T01:45:51;98610.69;;;20.45;68.81
77706;BME280;66874;45.274;5.880;2023-06-22T01:48:17;98612.97;;;20.51;68.55
77706;BME280;66874;45.274;5.880;2023-06-22T01:50:43;98617.13;;;20.55;68.50
77706;BME280;66874;45.274;5.880;2023-06-22T01:53:08;98634.66;;;20.58;68.46
77706;BME280;66874;45.274;5.880;2023-06-22T01:55:34;98644.53;;;20.56;68.56
77706;BME280;66874;45.274;5.880;2023-06-22T01:57:59;98641.78;;;20.57;68.55
77706;BME280;66874;45.274;5.880;2023-06-22T02:00:28;98657.63;;;20.59;68.46
77706;BME280;66874;45.274;5.880;2023-06-22T02:02:58;98666.03;;;20.53;68.74
77706;BME280;66874;45.274;5.880;2023-06-22T02:05:26;98670.00;;;20.45;68.92
77706;BME280;66874;45.274;5.880;2023-06-22T02:08:04;98680.22;;;20.52;68.73
77706;BME280;66874;45.274;5.880;2023-06-22T02:10:32;98687.69;;;20.59;68.40
77706;BME280;66874;45.274;5.880;2023-06-22T02:12:59;98682.31;;;20.61;68.03
77706;BME280;66874;45.274;5.880;2023-06-22T02:15:26;98684.00;;;20.62;67.95
77706;BME280;66874;45.274;5.880;2023-06-22T02:17:51;98682.19;;;20.62;68.27
77706;BME280;66874;45.274;5.880;2023-06-22T02:20:17;98661.13;;;20.59;68.18
77706;BME280;66874;45.274;5.880;2023-06-22T02:22:43;98679.00;;;20.57;68.39
77706;BME280;66874;45.274;5.880;2023-06-22T02:25:08;98674.63;;;20.56;68.31
77706;BME280;66874;45.274;5.880;2023-06-22T02:27:34;98666.88;;;20.53;68.35
77706;BME280;66874;45.274;5.880;2023-06-22T02:30:00;98659.75;;;20.54;68.69
77706;BME280;66874;45.274;5.880;2023-06-22T02:32:25;98662.72;;;20.49;68.69
77706;BME280;66874;45.274;5.880;2023-06-22T02:34:52;98662.75;;;20.47;68.74
77706;BME280;66874;45.274;5.880;2023-06-22T02:37:18;98662.59;;;20.51;68.75
77706;BME280;66874;45.274;5.880;2023-06-22T02:39:43;98649.00;;;20.55;68.67
77706;BME280;66874;45.274;5.880;2023-06-22T02:42:09;98665.72;;;20.57;68.38
77706;BME280;66874;45.274;5.880;2023-06-22T02:44:37;98651.47;;;20.58;68.59
77706;BME280;66874;45.274;5.880;2023-06-22T02:47:03;98642.63;;;20.58;68.59
77706;BME280;66874;45.274;5.880;2023-06-22T02:49:28;98656.97;;;20.55;68.64
77706;BME280;66874;45.274;5.880;2023-06-22T02:51:54;98647.31;;;20.54;68.90
77706;BME280;66874;45.274;5.880;2023-06-22T02:54:20;98650.16;;;20.51;68.97
77706;BME280;66874;45.274;5.880;2023-06-22T02:56:46;98652.31;;;20.44;69.14
77706;BME280;66874;45.274;5.880;2023-06-22T02:59:11;98654.34;;;20.41;69.13
77706;BME280;66874;45.274;5.880;2023-06-22T03:01:37;98652.94;;;20.35;69.25
77706;BME280;66874;45.274;5.880;2023-06-22T03:04:06;98649.63;;;20.32;69.48
77706;BME280;66874;45.274;5.880;2023-06-22T03:06:31;98650.25;;;20.22;69.47
77706;BME280;66874;45.274;5.880;2023-06-22T03:09:00;98655.94;;;20.16;69.86
77706;BME280;66874;45.274;5.880;2023-06-22T03:11:26;98660.53;;;20.14;70.06
77706;BME280;66874;45.274;5.880;2023-06-22T03:13:52;98651.69;;;20.14;69.99
77706;BME280;66874;45.274;5.880;2023-06-22T03:16:18;98656.16;;;20.13;70.14
77706;BME280;66874;45.274;5.880;2023-06-22T03:18:44;98653.41;;;20.15;70.12
77706;BME280;66874;45.274;5.880;2023-06-22T03:21:09;98654.16;;;20.17;70.17
77706;BME280;66874;45.274;5.880;2023-06-22T03:23:35;98657.66;;;20.17;70.51
77706;BME280;66874;45.274;5.880;2023-06-22T03:26:01;98650.34;;;20.21;70.21
77706;BME280;66874;45.274;5.880;2023-06-22T03:28:27;98646.75;;;20.22;70.27
77706;BME280;66874;45.274;5.880;2023-06-22T03:30:52;98652.78;;;20.24;70.11
77706;BME280;66874;45.274;5.880;2023-06-22T03:33:18;98662.38;;;20.27;70.10
77706;BME280;66874;45.274;5.880;2023-06-22T03:35:43;98660.03;;;20.22;70.26
77706;BME280;66874;45.274;5.880;2023-06-22T03:38:08;98669.88;;;20.20;70.17
77706;BME280;66874;45.274;5.880;2023-06-22T03:40:34;98674.25;;;20.21;70.09
77706;BME280;66874;45.274;5.880;2023-06-22T03:42:59;98689.16;;;20.09;70.63
77706;BME280;66874;45.274;5.880;2023-06-22T03:45:24;98708.06;;;19.90;71.36
77706;BME280;66874;45.274;5.880;2023-06-22T03:47:50;98716.91;;;19.62;72.42
77706;BME280;66874;45.274;5.880;2023-06-22T03:50:15;98749.63;;;19.47;73.32
77706;BME280;66874;45.274;5.880;2023-06-22T03:52:41;98795.09;;;19.41;73.93
77706;BME280;66874;45.274;5.880;2023-06-22T03:55:07;98812.91;;;19.39;73.92
77706;BME280;66874;45.274;5.880;2023-06-22T03:57:33;98822.28;;;19.44;73.98
77706;BME280;66874;45.274;5.880;2023-06-22T03:59:59;98826.47;;;19.48;73.86
77706;BME280;66874;45.274;5.880;2023-06-22T04:02:25;98843.50;;;19.60;73.46
77706;BME280;66874;45.274;5.880;2023-06-22T04:04:50;98870.34;;;19.70;73.46
77706;BME280;66874;45.274;5.880;2023-06-22T04:07:16;98883.06;;;19.79;73.24
77706;BME280;66874;45.274;5.880;2023-06-22T04:09:43;98885.00;;;19.91;72.83
77706;BME280;66874;45.274;5.880;2023-06-22T04:12:08;98893.16;;;20.03;72.52
77706;BME280;66874;45.274;5.880;2023-06-22T04:14:34;98905.97;;;20.10;72.05
77706;BME280;66874;45.274;5.880;2023-06-22T04:16:59;98924.28;;;20.15;72.03
77706;BME280;66874;45.274;5.880;2023-06-22T04:19:25;98932.06;;;20.18;71.86
77706;BME280;66874;45.274;5.880;2023-06-22T04:21:50;98955.03;;;20.19;71.94
77706;BME280;66874;45.274;5.880;2023-06-22T04:24:15;98972.56;;;20.21;72.10
77706;BME280;66874;45.274;5.880;2023-06-22T04:26:41;98985.66;;;20.24;72.13
77706;BME280;66874;45.274;5.880;2023-06-22T04:29:07;98993.28;;;20.31;72.13
77706;BME280;66874;45.274;5.880;2023-06-22T04:31:37;98989.31;;;20.38;71.82
77706;BME280;66874;45.274;5.880;2023-06-22T04:34:04;98986.38;;;20.42;72.20
77706;BME280;66874;45.274;5.880;2023-06-22T04:36:37;98973.16;;;20.41;72.17
77706;BME280;66874;45.274;5.880;2023-06-22T04:39:07;98992.41;;;20.44;72.47
77706;BME280;66874;45.274;5.880;2023-06-22T04:41:38;99002.59;;;20.38;72.83
77706;BME280;66874;45.274;5.880;2023-06-22T04:44:14;98986.81;;;20.35;72.91
77706;BME280;66874;45.274;5.880;2023-06-22T04:47:01;99003.44;;;20.38;72.97
77706;BME280;66874;45.274;5.880;2023-06-22T04:49:30;98993.66;;;20.39;72.96
77706;BME280;66874;45.274;5.880;2023-06-22T04:52:00;99000.59;;;20.41;73.37
77706;BME280;66874;45.274;5.880;2023-06-22T04:54:26;99003.81;;;20.46;73.22
77706;BME280;66874;45.274;5.880;2023-06-22T04:56:52;98991.25;;;20.50;73.34
77706;BME280;66874;45.274;5.880;2023-06-22T04:59:24;98975.31;;;20.50;73.41
77706;BME280;66874;45.274;5.880;2023-06-22T05:02:01;98970.94;;;20.49;73.60
77706;BME280;66874;45.274;5.880;2023-06-22T05:04:29;98954.88;;;20.51;73.57
77706;BME280;66874;45.274;5.880;2023-06-22T05:06:57;98946.22;;;20.47;73.82
77706;BME280;66874;45.274;5.880;2023-06-22T05:09:23;98935.69;;;20.45;74.01
77706;BME280;66874;45.274;5.880;2023-06-22T05:11:50;98895.00;;;20.45;74.15
77706;BME280;66874;45.274;5.880;2023-06-22T05:14:16;98838.41;;;20.43;74.30
77706;BME280;66874;45.274;5.880;2023-06-22T05:16:42;98839.38;;;20.42;74.36
77706;BME280;66874;45.274;5.880;2023-06-22T05:19:08;98853.22;;;20.47;73.91
77706;BME280;66874;45.274;5.880;2023-06-22T05:21:33;98834.72;;;20.60;73.55
77706;BME280;66874;45.274;5.880;2023-06-22T05:23:59;98847.50;;;20.67;73.58
77706;BME280;66874;45.274;5.880;2023-06-22T05:26:31;98848.84;;;20.75;73.64
77706;BME280;66874;45.274;5.880;2023-06-22T05:28:58;98854.81;;;20.78;73.46
77706;BME280;66874;45.274;5.880;2023-06-22T05:31:24;98854.50;;;20.83;73.57
77706;BME280;66874;45.274;5.880;2023-06-22T05:33:52;98849.84;;;20.86;73.54
77706;BME280;66874;45.274;5.880;2023-06-22T05:36:18;98858.41;;;20.91;73.39
77706;BME280;66874;45.274;5.880;2023-06-22T05:38:53;98846.31;;;21.00;73.45
77706;BME280;66874;45.274;5.880;2023-06-22T05:41:19;98835.34;;;21.05;73.12
77706;BME280;66874;45.274;5.880;2023-06-22T05:43:44;98852.09;;;21.07;72.90
77706;BME280;66874;45.274;5.880;2023-06-22T05:46:10;98851.19;;;21.06;72.63
77706;BME280;66874;45.274;5.880;2023-06-22T05:48:35;98856.75;;;21.03;72.63
77706;BME280;66874;45.274;5.880;2023-06-22T05:51:00;98876.22;;;21.04;72.74
77706;BME280;66874;45.274;5.880;2023-06-22T05:53:26;98888.94;;;20.98;72.55
77706;BME280;66874;45.274;5.880;2023-06-22T05:55:51;98893.50;;;20.96;73.04
77706;BME280;66874;45.274;5.880;2023-06-22T05:58:17;98914.31;;;20.90;73.42
77706;BME280;66874;45.274;5.880;2023-06-22T06:00:43;98877.88;;;20.92;73.27
77706;BME280;66874;45.274;5.880;2023-06-22T06:03:08;98886.56;;;20.94;73.44
77706;BME280;66874;45.274;5.880;2023-06-22T06:05:34;98902.16;;;21.00;73.61
77706;BME280;66874;45.274;5.880;2023-06-22T06:08:01;98868.13;;;21.05;73.26
77706;BME280;66874;45.274;5.880;2023-06-22T06:10:26;98864.88;;;21.14;73.00
77706;BME280;66874;45.274;5.880;2023-06-22T06:12:52;98848.31;;;21.24;72.87
77706;BME280;66874;45.274;5.880;2023-06-22T06:15:18;98836.31;;;21.31;72.43
77706;BME280;66874;45.274;5.880;2023-06-22T06:17:51;98847.63;;;21.34;72.52
77706;BME280;66874;45.274;5.880;2023-06-22T06:20:21;98865.28;;;21.35;72.35
77706;BME280;66874;45.274;5.880;2023-06-22T06:22:47;98851.91;;;21.50;72.40
77706;BME280;66874;45.274;5.880;2023-06-22T06:25:13;98822.66;;;21.62;71.97
77706;BME280;66874;45.274;5.880;2023-06-22T06:27:45;98822.34;;;21.67;71.94
77706;BME280;66874;45.274;5.880;2023-06-22T06:30:12;98814.66;;;21.75;71.55
77706;BME280;66874;45.274;5.880;2023-06-22T06:32:38;98798.69;;;21.75;71.26
77706;BME280;66874;45.274;5.880;2023-06-22T06:35:09;98802.97;;;21.78;71.46
77706;BME280;66874;45.274;5.880;2023-06-22T06:37:42;98818.28;;;21.87;71.53
77706;BME280;66874;45.274;5.880;2023-06-22T06:40:09;98803.72;;;21.92;71.19
77706;BME280;66874;45.274;5.880;2023-06-22T06:42:43;98798.19;;;21.96;70.91
77706;BME280;66874;45.274;5.880;2023-06-22T06:45:21;98785.78;;;21.94;70.95
77706;BME280;66874;45.274;5.880;2023-06-22T06:47:51;98777.09;;;21.92;70.92
77706;BME280;66874;45.274;5.880;2023-06-22T06:50:17;98781.56;;;21.92;70.96
77706;BME280;66874;45.274;5.880;2023-06-22T06:52:43;98803.28;;;21.99;70.94
77706;BME280;66874;45.274;5.880;2023-06-22T06:55:09;98826.31;;;22.00;70.92
77706;BME280;66874;45.274;5.880;2023-06-22T06:57:38;98845.78;;;22.00;70.95
77706;BME280;66874;45.274;5.880;2023-06-22T07:00:05;98828.75;;;22.03;70.43
77706;BME280;66874;45.274;5.880;2023-06-22T07:02:35;98832.34;;;22.02;69.99
77706;BME280;66874;45.274;5.880;2023-06-22T07:05:00;98863.59;;;22.00;70.35
77706;BME280;66874;45.274;5.880;2023-06-22T07:07:25;98843.78;;;21.91;70.26
77706;BME280;66874;45.274;5.880;2023-06-22T07:09:51;98845.56;;;21.90;70.08
77706;BME280;66874;45.274;5.880;2023-06-22T07:12:16;98839.31;;;21.91;70.28
77706;BME280;66874;45.274;5.880;2023-06-22T07:14:42;98817.56;;;21.98;70.18
77706;BME280;66874;45.274;5.880;2023-06-22T07:17:07;98825.22;;;22.02;70.12
77706;BME280;66874;45.274;5.880;2023-06-22T07:19:33;98830.97;;;22.09;70.51
77706;BME280;66874;45.274;5.880;2023-06-22T07:21:58;98809.16;;;22.16;70.25
77706;BME280;66874;45.274;5.880;2023-06-22T07:24:24;98829.41;;;22.19;70.54
77706;BME280;66874;45.274;5.880;2023-06-22T07:26:50;98857.88;;;22.18;70.55
77706;BME280;66874;45.274;5.880;2023-06-22T07:29:19;98850.50;;;22.22;70.64
77706;BME280;66874;45.274;5.880;2023-06-22T07:31:46;98856.78;;;22.21;70.56
77706;BME280;66874;45.274;5.880;2023-06-22T07:34:12;98848.06;;;22.19;71.25
77706;BME280;66874;45.274;5.880;2023-06-22T07:36:38;98856.78;;;22.21;71.51
77706;BME280;66874;45.274;5.880;2023-06-22T07:39:03;98870.97;;;22.22;71.41
77706;BME280;66874;45.274;5.880;2023-06-22T07:41:29;98889.06;;;22.16;71.83
77706;BME280;66874;45.274;5.880;2023-06-22T07:43:55;98902.41;;;22.16;71.74
77706;BME280;66874;45.274;5.880;2023-06-22T07:46:20;98908.38;;;22.20;71.74
77706;BME280;66874;45.274;5.880;2023-06-22T07:48:46;98887.50;;;22.27;71.29
77706;BME280;66874;45.274;5.880;2023-06-22T07:51:11;98819.69;;;22.31;71.28
77706;BME280;66874;45.274;5.880;2023-06-22T07:53:43;98815.88;;;22.22;71.27
77706;BME280;66874;45.274;5.880;2023-06-22T07:56:11;98817.78;;;22.07;71.55
77706;BME280;66874;45.274;5.880;2023-06-22T07:58:37;98823.19;;;22.06;71.72
77706;BME280;66874;45.274;5.880;2023-06-22T08:01:03;98863.78;;;22.09;71.84
77706;BME280;66874;45.274;5.880;2023-06-22T08:03:29;98880.22;;;22.03;72.16
77706;BME280;66874;45.274;5.880;2023-06-22T08:05:54;98854.50;;;22.02;72.40
77706;BME280;66874;45.274;5.880;2023-06-22T08:08:20;98811.03;;;22.02;72.67
77706;BME280;66874;45.274;5.880;2023-06-22T08:10:45;98790.06;;;21.97;72.61
77706;BME280;66874;45.274;5.880;2023-06-22T08:13:10;98774.22;;;21.96;72.56
77706;BME280;66874;45.274;5.880;2023-06-22T08:15:36;98782.19;;;21.96;71.82
77706;BME280;66874;45.274;5.880;2023-06-22T08:18:01;98785.81;;;22.07;71.69
77706;BME280;66874;45.274;5.880;2023-06-22T08:20:27;98793.72;;;22.22;72.14
77706;BME280;66874;45.274;5.880;2023-06-22T08:22:54;98798.38;;;22.31;71.77
77706;BME280;66874;45.274;5.880;2023-06-22T08:25:19;98811.56;;;22.32;71.13
77706;BME280;66874;45.274;5.880;2023-06-22T08:27:46;98814.38;;;22.31;70.28
77706;BME280;66874;45.274;5.880;2023-06-22T08:30:12;98828.19;;;22.36;70.57
77706;BME280;66874;45.274;5.880;2023-06-22T08:32:38;98842.59;;;22.46;70.32
77706;BME280;66874;45.274;5.880;2023-06-22T08:35:03;98862.72;;;22.50;69.78
77706;BME280;66874;45.274;5.880;2023-06-22T08:37:30;98866.13;;;22.52;69.08
77706;BME280;66874;45.274;5.880;2023-06-22T08:39:58;98857.03;;;22.67;67.98
77706;BME280;66874;45.274;5.880;2023-06-22T08:42:23;98857.22;;;22.77;68.16
77706;BME280;66874;45.274;5.880;2023-06-22T08:44:50;98844.81;;;22.89;67.74
77706;BME280;66874;45.274;5.880;2023-06-22T08:47:15;98834.28;;;23.11;66.67
77706;BME280;66874;45.274;5.880;2023-06-22T08:49:41;98832.31;;;23.26;65.46
77706;BME280;66874;45.274;5.880;2023-06-22T08:52:06;98847.84;;;23.32;64.87
77706;BME280;66874;45.274;5.880;2023-06-22T08:54:32;98855.97;;;23.31;64.28
77706;BME280;66874;45.274;5.880;2023-06-22T08:57:00;98850.13;;;23.26;64.10
77706;BME280;66874;45.274;5.880;2023-06-22T08:59:25;98848.41;;;23.25;64.15
77706;BME280;66874;45.274;5.880;2023-06-22T09:01:51;98844.03;;;23.24;64.61
77706;BME280;66874;45.274;5.880;2023-06-22T09:04:16;98866.38;;;23.23;63.47
77706;BME280;66874;45.274;5.880;2023-06-22T09:06:42;98880.44;;;23.25;62.43
77706;BME280;66874;45.274;5.880;2023-06-22T09:09:12;98882.66;;;23.31;61.93
77706;BME280;66874;45.274;5.880;2023-06-22T09:11:38;98895.09;;;23.43;59.96
77706;BME280;66874;45.274;5.880;2023-06-22T09:14:03;98901.94;;;23.58;59.83
77706;BME280;66874;45.274;5.880;2023-06-22T09:16:29;98889.22;;;23.62;59.92
77706;BME280;66874;45.274;5.880;2023-06-22T09:18:55;98879.59;;;23.72;59.67
77706;BME280;66874;45.274;5.880;2023-06-22T09:21:20;98871.47;;;23.85;59.46
77706;BME280;66874;45.274;5.880;2023-06-22T09:23:46;98862.16;;;24.02;58.75
77706;BME280;66874;45.274;5.880;2023-06-22T09:26:15;98862.41;;;24.21;59.69
77706;BME280;66874;45.274;5.880;2023-06-22T09:28:41;98859.03;;;24.30;59.47
77706;BME280;66874;45.274;5.880;2023-06-22T09:31:06;98859.88;;;24.31;59.81
77706;BME280;66874;45.274;5.880;2023-06-22T09:33:31;98878.59;;;24.31;59.73
77706;BME280;66874;45.274;5.880;2023-06-22T09:35:57;98880.66;;;24.27;59.11
77706;BME280;66874;45.274;5.880;2023-06-22T09:38:22;98893.16;;;24.27;59.17
77706;BME280;66874;45.274;5.880;2023-06-22T09:40:48;98891.94;;;24.31;59.43
77706;BME280;66874;45.274;5.880;2023-06-22T09:43:13;98888.91;;;24.35;59.20
77706;BME280;66874;45.274;5.880;2023-06-22T09:45:38;98889.19;;;24.44;59.04
77706;BME280;66874;45.274;5.880;2023-06-22T09:48:04;98897.09;;;24.56;59.08
77706;BME280;66874;45.274;5.880;2023-06-22T09:50:30;98892.09;;;24.74;59.46
77706;BME280;66874;45.274;5.880;2023-06-22T09:52:55;98883.69;;;24.90;59.50
77706;BME280;66874;45.274;5.880;2023-06-22T09:55:21;98881.59;;;25.05;60.08
77706;BME280;66874;45.274;5.880;2023-06-22T09:57:47;98867.22;;;25.17;60.54
77706;BME280;66874;45.274;5.880;2023-06-22T10:00:13;98864.06;;;25.23;60.82
77706;BME280;66874;45.274;5.880;2023-06-22T10:02:41;98869.25;;;25.25;59.92
77706;BME280;66874;45.274;5.880;2023-06-22T10:05:07;98877.28;;;25.25;60.10
77706;BME280;66874;45.274;5.880;2023-06-22T10:07:33;98904.59;;;25.19;59.98
77706;BME280;66874;45.274;5.880;2023-06-22T10:09:59;98906.78;;;25.02;57.71
77706;BME280;66874;45.274;5.880;2023-06-22T10:12:26;98903.13;;;25.03;57.43
77706;BME280;66874;45.274;5.880;2023-06-22T10:14:52;98902.75;;;25.08;57.16
77706;BME280;66874;45.274;5.880;2023-06-22T10:17:18;98904.81;;;25.04;58.36
77706;BME280;66874;45.274;5.880;2023-06-22T10:19:43;98893.91;;;24.96;59.70
77706;BME280;66874;45.274;5.880;2023-06-22T10:22:08;98867.97;;;24.97;60.04
77706;BME280;66874;45.274;5.880;2023-06-22T10:24:34;98878.69;;;24.97;60.62
77706;BME280;66874;45.274;5.880;2023-06-22T10:26:59;98909.22;;;24.94;61.81
77706;BME280;66874;45.274;5.880;2023-06-22T10:29:25;98907.28;;;24.85;61.72
77706;BME280;66874;45.274;5.880;2023-06-22T10:31:50;98898.41;;;24.84;61.07
77706;BME280;66874;45.274;5.880;2023-06-22T10:34:16;98884.03;;;24.97;61.05
77706;BME280;66874;45.274;5.880;2023-06-22T10:36:41;98850.91;;;25.09;60.92
77706;BME280;66874;45.274;5.880;2023-06-22T10:39:07;98824.38;;;25.17;60.57
77706;BME280;66874;45.274;5.880;2023-06-22T10:41:32;98826.56;;;25.23;60.54
77706;BME280;66874;45.274;5.880;2023-06-22T10:43:58;98844.06;;;25.27;60.89
77706;BME280;66874;45.274;5.880;2023-06-22T10:46:26;98823.50;;;25.28;60.94
77706;BME280;66874;45.274;5.880;2023-06-22T10:48:53;98814.13;;;25.33;61.36
77706;BME280;66874;45.274;5.880;2023-06-22T10:51:20;98822.09;;;25.45;60.95
77706;BME280;66874;45.274;5.880;2023-06-22T10:53:45;98819.44;;;25.45;61.47
77706;BME280;66874;45.274;5.880;2023-06-22T10:56:11;98773.81;;;25.35;62.11
77706;BME280;66874;45.274;5.880;2023-06-22T10:58:36;98758.34;;;25.39;62.26
77706;BME280;66874;45.274;5.880;2023-06-22T11:01:02;98725.88;;;25.53;62.53
77706;BME280;66874;45.274;5.880;2023-06-22T11:03:28;98713.78;;;25.58;62.29
77706;BME280;66874;45.274;5.880;2023-06-22T11:05:54;98709.38;;;25.78;62.03
77706;BME280;66874;45.274;5.880;2023-06-22T11:08:19;98694.81;;;26.02;61.19
77706;BME280;66874;45.274;5.880;2023-06-22T11:10:45;98676.16;;;26.41;60.40
77706;BME280;66874;45.274;5.880;2023-06-22T11:13:10;98679.16;;;26.86;59.20
77706;BME280;66874;45.274;5.880;2023-06-22T11:15:36;98683.81;;;26.94;58.18
77706;BME280;66874;45.274;5.880;2023-06-22T11:18:01;98681.00;;;26.76;58.05
77706;BME280;66874;45.274;5.880;2023-06-22T11:20:27;98694.81;;;26.52;57.55
77706;BME280;66874;45.274;5.880;2023-06-22T11:22:52;98701.53;;;26.37;58.27
77706;BME280;66874;45.274;5.880;2023-06-22T11:25:18;98713.50;;;26.23;57.81
77706;BME280;66874;45.274;5.880;2023-06-22T11:27:43;98745.47;;;26.05;58.00
77706;BME280;66874;45.274;5.880;2023-06-22T11:30:09;98767.09;;;25.83;59.21
77706;BME280;66874;45.274;5.880;2023-06-22T11:32:34;98778.31;;;25.76;59.19
77706;BME280;66874;45.274;5.880;2023-06-22T11:35:00;98789.69;;;25.90;59.27
77706;BME280;66874;45.274;5.880;2023-06-22T11:37:25;98787.00;;;26.20;59.14
77706;BME280;66874;45.274;5.880;2023-06-22T11:39:51;98781.38;;;26.54;58.66
77706;BME280;66874;45.274;5.880;2023-06-22T11:42:18;98790.50;;;26.92;58.31
77706;BME280;66874;45.274;5.880;2023-06-22T11:44:43;98785.66;;;27.63;57.17
77706;BME280;66874;45.274;5.880;2023-06-22T11:47:09;98786.16;;;28.06;56.02
77706;BME280;66874;45.274;5.880;2023-06-22T11:49:34;98778.44;;;28.20;55.11
77706;BME280;66874;45.274;5.880;2023-06-22T11:51:59;98766.97;;;28.56;54.27
77706;BME280;66874;45.274;5.880;2023-06-22T11:54:25;98760.13;;;29.07;53.69
77706;BME280;66874;45.274;5.880;2023-06-22T11:56:50;98762.31;;;29.91;51.55
77706;BME280;66874;45.274;5.880;2023-06-22T11:59:16;98754.97;;;30.09;50.97
77706;BME280;66874;45.274;5.880;2023-06-22T12:01:41;98739.00;;;30.67;50.43
77706;BME280;66874;45.274;5.880;2023-06-22T12:04:07;98735.91;;;31.04;48.45
77706;BME280;66874;45.274;5.880;2023-06-22T12:06:32;98728.81;;;31.44;47.36
77706;BME280;66874;45.274;5.880;2023-06-22T12:08:58;98739.97;;;31.57;45.75
77706;BME280;66874;45.274;5.880;2023-06-22T12:11:23;98743.50;;;31.25;45.67
77706;BME280;66874;45.274;5.880;2023-06-22T12:13:49;98748.56;;;31.20;46.51
77706;BME280;66874;45.274;5.880;2023-06-22T12:16:14;98735.41;;;31.57;46.78
77706;BME280;66874;45.274;5.880;2023-06-22T12:18:40;98750.63;;;31.50;47.76
77706;BME280;66874;45.274;5.880;2023-06-22T12:21:05;98767.38;;;31.38;47.51
77706;BME280;66874;45.274;5.880;2023-06-22T12:23:30;98770.19;;;31.28;46.81
77706;BME280;66874;45.274;5.880;2023-06-22T12:25:56;98756.16;;;30.92;46.79
77706;BME280;66874;45.274;5.880;2023-06-22T12:28:21;98755.06;;;30.68;46.72
77706;BME280;66874;45.274;5.880;2023-06-22T12:30:48;98760.25;;;30.53;46.82
77706;BME280;66874;45.274;5.880;2023-06-22T12:33:14;98758.06;;;30.49;46.45
77706;BME280;66874;45.274;5.880;2023-06-22T12:35:39;98766.22;;;30.23;46.62
77706;BME280;66874;45.274;5.880;2023-06-22T12:38:04;98766.47;;;30.11;46.66
77706;BME280;66874;45.274;5.880;2023-06-22T12:40:32;98761.06;;;30.11;47.25
77706;BME280;66874;45.274;5.880;2023-06-22T12:42:58;98760.31;;;30.01;46.96
77706;BME280;66874;45.274;5.880;2023-06-22T12:45:24;98754.78;;;30.03;47.09
77706;BME280;66874;45.274;5.880;2023-06-22T12:47:50;98756.13;;;30.75;46.46
77706;BME280;66874;45.274;5.880;2023-06-22T12:50:15;98752.09;;;31.04;45.95
77706;BME280;66874;45.274;5.880;2023-06-22T12:52:41;98749.41;;;31.04;45.40
77706;BME280;66874;45.274;5.880;2023-06-22T12:55:07;98729.66;;;30.95;45.00
77706;BME280;66874;45.274;5.880;2023-06-22T12:57:32;98734.06;;;31.45;44.42
77706;BME280;66874;45.274;5.880;2023-06-22T12:59:58;98720.53;;;31.53;43.71
77706;BME280;66874;45.274;5.880;2023-06-22T13:02:25;98718.47;;;31.80;43.21
77706;BME280;66874;45.274;5.880;2023-06-22T13:04:50;98710.13;;;31.98;42.92
77706;BME280;66874;45.274;5.880;2023-06-22T13:07:16;98696.53;;;32.53;41.81